Time;durP1;ratioP1;P1;durP2;ratioP2;P2;SDS_P1;SDS_P2;PMS_P1;PMS_P2;Temp;Humidity;BMP_temperature;BMP_pressure;BME280_temperature;BME280_humidity;BME280_pressure;Samples;Min_cycle;Max_cycle;Signal;HPM_P1;HPM_P2
2024/02/24 00:00:44;;;;;;;5.72;4.00;;;;;;;;;;5003750;28;25129;-65
2024/02/24 00:03:10;;;;;;;6.97;4.00;;;;;;;;;;5007604;28;25069;-67
2024/02/24 00:05:36;;;;;;;4.82;3.92;;;;;;;;;;4992701;28;25078;-65
2024/02/24 00:08:02;;;;;;;6.45;3.85;;;;;;;;;;4995851;28;25133;-65
2024/02/24 00:10:28;;;;;;;6.03;3.08;;;;;;;;;;5002640;28;25086;-65
2024/02/24 00:12:54;;;;;;;6.35;3.38;;;;;;;;;;5002221;28;25139;-66
2024/02/24 00:15:20;;;;;;;7.65;3.63;;;;;;;;;;5004915;28;25064;-67
2024/02/24 00:17:46;;;;;;;3.35;3.00;;;;;;;;;;5006807;28;25098;-63
2024/02/24 00:20:12;;;;;;;7.63;4.47;;;;;;;;;;4975951;28;25085;-65
2024/02/24 00:22:38;;;;;;;5.65;3.70;;;;;;;;;;4995967;28;25080;-64
2024/02/24 00:25:05;;;;;;;6.20;3.80;;;;;;;;;;4995184;28;25091;-66
2024/02/24 00:27:31;;;;;;;4.97;3.65;;;;;;;;;;4993540;28;25095;-64
2024/02/24 00:29:57;;;;;;;5.40;3.75;;;;;;;;;;4988288;28;25102;-65
2024/02/24 00:32:23;;;;;;;4.90;3.95;;;;;;;;;;5007464;28;25059;-66
2024/02/24 00:34:49;;;;;;;7.32;4.05;;;;;;;;;;4995608;28;25063;-65
2024/02/24 00:37:15;;;;;;;4.97;3.35;;;;;;;;;;5002075;28;25071;-66
2024/02/24 00:39:41;;;;;;;6.15;3.80;;;;;;;;;;5005625;28;25061;-66
2024/02/24 00:42:07;;;;;;;4.43;3.72;;;;;;;;;;5004001;28;25156;-66
2024/02/24 00:44:33;;;;;;;5.13;3.55;;;;;;;;;;4988871;28;25151;-65
2024/02/24 00:46:59;;;;;;;6.75;3.63;;;;;;;;;;5004686;28;25074;-65
2024/02/24 00:49:25;;;;;;;7.00;4.00;;;;;;;;;;5001611;28;25061;-66
2024/02/24 00:51:51;;;;;;;8.38;4.18;;;;;;;;;;5000970;28;25149;-65
2024/02/24 00:54:17;;;;;;;6.95;4.32;;;;;;;;;;4987739;28;25051;-64
2024/02/24 00:56:43;;;;;;;14.80;4.80;;;;;;;;;;4999376;28;25085;-66
2024/02/24 00:59:09;;;;;;;11.10;5.03;;;;;;;;;;4998331;28;25087;-65
2024/02/24 01:01:35;;;;;;;12.38;5.88;;;;;;;;;;4993638;28;25104;-64
2024/02/24 01:04:01;;;;;;;6.93;4.55;;;;;;;;;;4995937;28;25144;-64
2024/02/24 01:06:27;;;;;;;15.98;6.15;;;;;;;;;;5000371;28;25074;-65
2024/02/24 01:08:53;;;;;;;9.60;5.45;;;;;;;;;;5000741;28;25140;-64
2024/02/24 01:11:19;;;;;;;12.25;6.07;;;;;;;;;;4994556;28;25067;-65
2024/02/24 01:13:45;;;;;;;10.80;5.45;;;;;;;;;;5004725;28;25078;-66
2024/02/24 01:16:11;;;;;;;8.35;4.35;;;;;;;;;;5006503;28;25078;-65
2024/02/24 01:18:37;;;;;;;12.13;5.63;;;;;;;;;;5005690;28;25163;-64
2024/02/24 01:21:04;;;;;;;8.25;5.40;;;;;;;;;;5007079;28;25057;-66
2024/02/24 01:23:29;;;;;;;9.13;5.18;;;;;;;;;;5008958;28;25161;-64
2024/02/24 01:25:55;;;;;;;11.80;5.32;;;;;;;;;;5024977;28;25048;-67
2024/02/24 01:28:22;;;;;;;7.70;5.00;;;;;;;;;;5028000;28;25061;-70
2024/02/24 01:30:48;;;;;;;12.32;5.97;;;;;;;;;;5020557;28;25049;-64
2024/02/24 01:33:14;;;;;;;11.55;4.97;;;;;;;;;;5017076;28;25054;-64
2024/02/24 01:35:40;;;;;;;9.30;5.13;;;;;;;;;;5015088;28;25109;-65
2024/02/24 01:38:06;;;;;;;8.88;4.97;;;;;;;;;;5009085;28;25074;-65
2024/02/24 01:40:33;;;;;;;9.63;4.20;;;;;;;;;;5010348;28;25074;-64
2024/02/24 01:42:59;;;;;;;7.80;4.78;;;;;;;;;;5013037;28;25048;-63
2024/02/24 01:45:25;;;;;;;9.90;4.72;;;;;;;;;;5002623;28;25056;-64
2024/02/24 01:47:52;;;;;;;10.02;4.78;;;;;;;;;;5007940;28;25062;-65
2024/02/24 01:50:18;;;;;;;10.88;4.55;;;;;;;;;;5005686;28;25054;-65
2024/02/24 01:52:47;;;;;;;10.43;5.72;;;;;;;;;;4998479;28;25063;-65
2024/02/24 01:55:13;;;;;;;7.60;5.57;;;;;;;;;;5004533;28;25068;-64
2024/02/24 01:57:43;;;;;;;7.50;4.93;;;;;;;;;;5006314;28;25064;-65
2024/02/24 02:00:10;;;;;;;12.82;5.65;;;;;;;;;;5007239;28;25092;-65
2024/02/24 02:02:42;;;;;;;8.23;4.80;;;;;;;;;;5010263;28;25064;-64
2024/02/24 02:05:08;;;;;;;8.60;5.97;;;;;;;;;;4990974;28;25139;-64
2024/02/24 02:07:35;;;;;;;7.35;5.00;;;;;;;;;;5004725;28;25075;-65
2024/02/24 02:10:01;;;;;;;7.72;4.95;;;;;;;;;;5008852;28;25056;-67
2024/02/24 02:12:28;;;;;;;6.63;4.65;;;;;;;;;;5002804;28;25069;-66
2024/02/24 02:14:54;;;;;;;9.15;5.45;;;;;;;;;;4999429;28;25136;-66
2024/02/24 02:17:21;;;;;;;5.60;4.35;;;;;;;;;;4988094;28;25066;-67
2024/02/24 02:19:47;;;;;;;7.88;5.15;;;;;;;;;;4991948;28;25064;-64
2024/02/24 02:22:17;;;;;;;8.43;4.97;;;;;;;;;;5001299;28;25147;-64
2024/02/24 02:24:44;;;;;;;8.90;5.63;;;;;;;;;;5005175;28;25104;-64
2024/02/24 02:27:10;;;;;;;10.65;5.63;;;;;;;;;;4988287;28;25093;-66
2024/02/24 02:29:36;;;;;;;7.78;5.95;;;;;;;;;;4992763;28;25105;-64
2024/02/24 02:32:02;;;;;;;8.88;6.45;;;;;;;;;;5002764;28;25167;-64
2024/02/24 02:34:28;;;;;;;8.55;5.95;;;;;;;;;;5001753;28;25093;-64
2024/02/24 02:36:54;;;;;;;10.27;6.00;;;;;;;;;;5001848;28;25072;-65
2024/02/24 02:39:20;;;;;;;9.57;6.03;;;;;;;;;;5002495;28;25116;-65
2024/02/24 02:41:46;;;;;;;8.07;4.72;;;;;;;;;;5004019;28;25101;-65
2024/02/24 02:44:13;;;;;;;11.05;6.13;;;;;;;;;;5002870;28;25073;-65
2024/02/24 02:46:39;;;;;;;9.73;5.70;;;;;;;;;;5001830;28;25061;-65
2024/02/24 02:49:05;;;;;;;9.43;4.88;;;;;;;;;;4986092;28;25164;-65
2024/02/24 02:51:31;;;;;;;9.90;6.10;;;;;;;;;;5005628;28;25137;-66
2024/02/24 02:53:57;;;;;;;9.93;6.50;;;;;;;;;;5003845;28;25101;-64
2024/02/24 02:56:23;;;;;;;8.18;5.20;;;;;;;;;;4990505;28;25103;-66
2024/02/24 02:58:50;;;;;;;7.78;5.75;;;;;;;;;;5014246;28;25079;-66
2024/02/24 03:01:16;;;;;;;10.32;5.57;;;;;;;;;;5008263;28;25057;-65
2024/02/24 03:03:42;;;;;;;8.23;6.47;;;;;;;;;;5012115;28;25060;-66
2024/02/24 03:06:08;;;;;;;9.00;6.63;;;;;;;;;;5011602;28;25133;-65
2024/02/24 03:08:34;;;;;;;8.15;6.50;;;;;;;;;;5013828;28;25065;-64
2024/02/24 03:11:01;;;;;;;11.25;6.43;;;;;;;;;;5009682;28;26200;-64
2024/02/24 03:13:27;;;;;;;10.30;6.70;;;;;;;;;;5006723;28;25098;-65
2024/02/24 03:15:53;;;;;;;11.63;7.03;;;;;;;;;;5001902;28;25094;-65
2024/02/24 03:18:19;;;;;;;10.82;7.35;;;;;;;;;;5004734;28;25087;-66
2024/02/24 03:20:45;;;;;;;11.05;6.78;;;;;;;;;;4999670;28;25104;-65
2024/02/24 03:23:11;;;;;;;9.45;6.35;;;;;;;;;;4999443;28;25050;-65
2024/02/24 03:25:37;;;;;;;12.23;7.43;;;;;;;;;;5002904;28;25163;-65
2024/02/24 03:28:04;;;;;;;12.55;6.07;;;;;;;;;;4992858;28;25062;-64
2024/02/24 03:30:30;;;;;;;12.57;6.90;;;;;;;;;;4999230;28;25052;-65
2024/02/24 03:32:56;;;;;;;11.95;7.93;;;;;;;;;;5002702;28;25068;-64
2024/02/24 03:35:22;;;;;;;9.80;7.38;;;;;;;;;;5006221;28;25065;-65
2024/02/24 03:37:51;;;;;;;10.52;7.13;;;;;;;;;;5016823;28;25052;-65
2024/02/24 03:40:17;;;;;;;7.97;7.18;;;;;;;;;;5020593;28;25071;-65
2024/02/24 03:42:43;;;;;;;12.00;7.50;;;;;;;;;;5016635;28;25065;-65
2024/02/24 03:45:10;;;;;;;8.30;6.30;;;;;;;;;;5023769;28;25090;-65
2024/02/24 03:47:36;;;;;;;9.15;7.50;;;;;;;;;;5010826;28;25057;-65
2024/02/24 03:50:02;;;;;;;11.10;8.05;;;;;;;;;;5000721;28;25077;-65
2024/02/24 03:52:28;;;;;;;10.13;7.53;;;;;;;;;;5001729;28;25168;-65
2024/02/24 03:54:54;;;;;;;8.35;6.88;;;;;;;;;;4983771;28;25049;-66
2024/02/24 03:57:20;;;;;;;11.73;8.55;;;;;;;;;;4993317;28;25084;-65
2024/02/24 03:59:46;;;;;;;9.23;6.30;;;;;;;;;;5007514;28;25116;-65
2024/02/24 04:02:12;;;;;;;12.95;7.57;;;;;;;;;;4982760;28;25185;-64
2024/02/24 04:04:38;;;;;;;10.75;8.23;;;;;;;;;;5000078;28;25136;-66
2024/02/24 04:07:04;;;;;;;14.88;8.10;;;;;;;;;;5002727;28;25072;-67
2024/02/24 04:09:30;;;;;;;13.35;9.15;;;;;;;;;;5003152;28;25081;-67
2024/02/24 04:11:56;;;;;;;10.65;9.00;;;;;;;;;;4995493;28;25076;-66
2024/02/24 04:14:22;;;;;;;11.23;8.82;;;;;;;;;;5006810;28;25163;-65
2024/02/24 04:16:48;;;;;;;14.05;8.43;;;;;;;;;;4989014;28;25061;-65
2024/02/24 04:19:17;;;;;;;11.80;8.35;;;;;;;;;;4982987;28;25082;-67
2024/02/24 04:21:47;;;;;;;12.35;9.43;;;;;;;;;;4990025;28;25057;-67
2024/02/24 04:24:13;;;;;;;12.10;8.85;;;;;;;;;;5000641;28;25068;-65
2024/02/24 04:26:39;;;;;;;12.98;9.95;;;;;;;;;;5007352;28;25058;-64
2024/02/24 04:29:05;;;;;;;13.65;10.20;;;;;;;;;;5003516;28;25062;-70
2024/02/24 04:31:31;;;;;;;16.63;10.50;;;;;;;;;;5006274;28;25164;-67
2024/02/24 04:33:57;;;;;;;10.18;9.10;;;;;;;;;;5005111;28;25136;-70
2024/02/24 04:36:23;;;;;;;15.80;11.68;;;;;;;;;;4993999;28;25086;-68
2024/02/24 04:38:49;;;;;;;12.93;11.52;;;;;;;;;;4997366;28;25069;-68
2024/02/24 04:41:15;;;;;;;16.73;11.82;;;;;;;;;;5007373;28;25088;-68
2024/02/24 04:43:41;;;;;;;21.35;12.73;;;;;;;;;;5002097;28;25073;-68
2024/02/24 04:46:07;;;;;;;17.95;13.27;;;;;;;;;;4999218;28;25075;-69
2024/02/24 04:48:34;;;;;;;18.02;13.98;;;;;;;;;;4988790;28;25046;-68
2024/02/24 04:51:00;;;;;;;19.80;13.45;;;;;;;;;;4998370;28;25082;-69
2024/02/24 04:53:26;;;;;;;21.17;15.32;;;;;;;;;;4987464;28;25059;-70
2024/02/24 04:55:52;;;;;;;19.40;13.52;;;;;;;;;;5002120;28;25060;-68
2024/02/24 04:58:18;;;;;;;21.40;15.68;;;;;;;;;;4995467;28;25070;-70
2024/02/24 05:00:45;;;;;;;23.60;16.15;;;;;;;;;;4989999;28;25136;-69
2024/02/24 05:03:11;;;;;;;20.90;15.43;;;;;;;;;;5008609;28;25070;-67
2024/02/24 05:05:41;;;;;;;22.63;16.23;;;;;;;;;;5008362;28;25069;-68
2024/02/24 05:08:07;;;;;;;24.30;17.10;;;;;;;;;;5004568;28;24904;-69
2024/02/24 05:10:33;;;;;;;21.73;15.63;;;;;;;;;;4991421;28;25068;-67
2024/02/24 05:12:59;;;;;;;23.83;17.25;;;;;;;;;;5007299;28;25061;-68
2024/02/24 05:15:25;;;;;;;22.75;17.23;;;;;;;;;;4997119;28;25067;-68
2024/02/24 05:17:51;;;;;;;26.15;17.25;;;;;;;;;;5012725;28;25158;-69
2024/02/24 05:20:20;;;;;;;23.55;17.35;;;;;;;;;;5010236;28;25086;-69
2024/02/24 05:22:46;;;;;;;22.85;16.13;;;;;;;;;;5004849;28;25060;-68
2024/02/24 05:25:13;;;;;;;22.23;16.08;;;;;;;;;;5009005;28;25044;-67
2024/02/24 05:27:39;;;;;;;29.35;18.58;;;;;;;;;;4991444;28;25089;-66
2024/02/24 05:30:06;;;;;;;23.02;17.38;;;;;;;;;;5008403;28;25052;-67
2024/02/24 05:32:32;;;;;;;24.52;17.90;;;;;;;;;;5009421;28;25064;-69
2024/02/24 05:34:58;;;;;;;21.10;16.25;;;;;;;;;;4993778;28;25055;-68
2024/02/24 05:37:33;;;;;;;20.17;15.85;;;;;;;;;;5010756;28;25059;-67
2024/02/24 05:40:00;;;;;;;28.65;18.13;;;;;;;;;;5008342;28;25065;-70
2024/02/24 05:42:26;;;;;;;21.27;15.35;;;;;;;;;;4990431;28;25097;-70
2024/02/24 05:44:52;;;;;;;19.13;13.70;;;;;;;;;;5011634;28;25070;-68
2024/02/24 05:47:18;;;;;;;28.27;17.63;;;;;;;;;;5009291;28;25075;-68
2024/02/24 05:49:44;;;;;;;26.40;17.75;;;;;;;;;;5014081;28;25069;-70
2024/02/24 05:52:10;;;;;;;22.83;16.60;;;;;;;;;;5011794;28;25062;-68
2024/02/24 05:54:39;;;;;;;23.67;16.25;;;;;;;;;;5004781;28;25105;-67
2024/02/24 05:57:05;;;;;;;24.35;16.23;;;;;;;;;;5001382;28;25093;-65
2024/02/24 05:59:31;;;;;;;20.13;14.52;;;;;;;;;;5004174;28;25084;-70
2024/02/24 06:02:00;;;;;;;28.02;17.40;;;;;;;;;;5012871;28;25151;-70
2024/02/24 06:04:26;;;;;;;27.30;18.50;;;;;;;;;;5008654;28;25058;-67
2024/02/24 06:06:52;;;;;;;26.42;16.75;;;;;;;;;;4995144;28;25066;-66
2024/02/24 06:09:19;;;;;;;25.42;17.23;;;;;;;;;;5011866;28;25145;-65
2024/02/24 06:11:46;;;;;;;21.60;15.55;;;;;;;;;;4995953;28;25057;-67
2024/02/24 06:14:13;;;;;;;26.00;17.52;;;;;;;;;;4998102;28;25142;-67
2024/02/24 06:16:39;;;;;;;25.27;18.13;;;;;;;;;;5008211;28;25048;-66
2024/02/24 06:19:05;;;;;;;24.92;17.98;;;;;;;;;;4990761;28;25156;-66
2024/02/24 06:21:31;;;;;;;30.10;19.45;;;;;;;;;;5009258;28;25050;-67
2024/02/24 06:23:58;;;;;;;25.25;17.95;;;;;;;;;;5005929;28;25064;-66
2024/02/24 06:26:24;;;;;;;27.60;18.85;;;;;;;;;;4993666;28;25138;-66
2024/02/24 06:28:50;;;;;;;26.88;17.33;;;;;;;;;;5016118;28;25046;-66
2024/02/24 06:31:17;;;;;;;27.17;18.80;;;;;;;;;;4998812;28;25069;-66
2024/02/24 06:33:44;;;;;;;25.58;17.85;;;;;;;;;;5011438;28;25221;-65
2024/02/24 06:36:10;;;;;;;29.50;19.10;;;;;;;;;;4995875;28;25069;-64
2024/02/24 06:38:36;;;;;;;28.35;19.42;;;;;;;;;;5006919;28;25112;-67
2024/02/24 06:41:03;;;;;;;26.85;18.30;;;;;;;;;;4989192;28;25143;-67
2024/02/24 06:43:29;;;;;;;28.63;20.15;;;;;;;;;;4989657;28;25067;-67
2024/02/24 06:45:54;;;;;;;29.15;19.13;;;;;;;;;;5009622;28;25109;-65
2024/02/24 06:48:21;;;;;;;27.15;18.25;;;;;;;;;;4989389;28;25128;-69
2024/02/24 06:50:47;;;;;;;24.05;18.50;;;;;;;;;;5010067;28;25087;-68
2024/02/24 06:53:13;;;;;;;21.30;16.70;;;;;;;;;;4989543;28;25071;-69
2024/02/24 06:55:39;;;;;;;26.50;18.35;;;;;;;;;;5006599;28;25072;-70
2024/02/24 06:58:05;;;;;;;25.13;16.65;;;;;;;;;;5011960;28;25069;-70
2024/02/24 07:00:31;;;;;;;31.50;18.23;;;;;;;;;;5005730;28;25095;-67
2024/02/24 07:02:58;;;;;;;25.95;17.77;;;;;;;;;;5005681;28;25067;-68
2024/02/24 07:05:25;;;;;;;22.95;16.38;;;;;;;;;;4989028;28;25062;-68
2024/02/24 07:07:51;;;;;;;19.23;14.48;;;;;;;;;;5009251;28;25115;-69
2024/02/24 07:10:17;;;;;;;21.42;15.60;;;;;;;;;;5004773;28;25075;-69
2024/02/24 07:12:44;;;;;;;20.45;14.32;;;;;;;;;;4989262;28;25055;-69
2024/02/24 07:15:11;;;;;;;24.05;15.70;;;;;;;;;;5002962;28;25069;-68
2024/02/24 07:17:37;;;;;;;19.70;14.10;;;;;;;;;;5006799;28;25051;-67
2024/02/24 07:20:03;;;;;;;18.48;14.00;;;;;;;;;;5004041;28;25047;-68
2024/02/24 07:22:29;;;;;;;18.70;13.38;;;;;;;;;;5004494;28;25078;-70
2024/02/24 07:24:55;;;;;;;19.85;14.70;;;;;;;;;;4991307;28;25074;-68
2024/02/24 07:27:21;;;;;;;25.02;15.82;;;;;;;;;;5006603;28;25107;-71
2024/02/24 07:29:47;;;;;;;19.90;14.60;;;;;;;;;;4991142;28;25089;-69
2024/02/24 07:32:13;;;;;;;20.33;14.93;;;;;;;;;;5000887;28;25106;-69
2024/02/24 07:34:39;;;;;;;21.65;15.57;;;;;;;;;;5004833;28;25043;-68
2024/02/24 07:37:06;;;;;;;22.05;15.82;;;;;;;;;;5002358;28;25112;-70
2024/02/24 07:39:32;;;;;;;23.67;15.75;;;;;;;;;;4999502;28;25053;-71
2024/02/24 07:41:58;;;;;;;19.80;16.13;;;;;;;;;;4987668;28;25079;-70
2024/02/24 07:44:24;;;;;;;20.90;16.38;;;;;;;;;;4990421;28;25080;-70
2024/02/24 07:46:51;;;;;;;18.20;14.40;;;;;;;;;;5007346;28;25094;-69
2024/02/24 07:49:17;;;;;;;19.45;14.73;;;;;;;;;;5008786;28;25137;-68
2024/02/24 07:51:43;;;;;;;21.35;15.50;;;;;;;;;;5007436;28;25091;-65
2024/02/24 07:54:09;;;;;;;20.27;15.38;;;;;;;;;;5008633;28;25060;-66
2024/02/24 07:56:36;;;;;;;21.58;13.55;;;;;;;;;;4993427;28;25062;-65
2024/02/24 07:59:02;;;;;;;27.02;18.35;;;;;;;;;;5007990;28;25095;-66
2024/02/24 08:01:28;;;;;;;27.60;18.08;;;;;;;;;;4992616;28;25070;-66
2024/02/24 08:03:55;;;;;;;22.02;15.48;;;;;;;;;;4995940;28;25143;-66
2024/02/24 08:06:27;;;;;;;23.02;16.00;;;;;;;;;;5005208;28;25075;-65
2024/02/24 08:08:53;;;;;;;26.65;17.60;;;;;;;;;;5017284;28;25100;-65
2024/02/24 08:11:19;;;;;;;17.33;13.15;;;;;;;;;;5004847;28;25052;-66
2024/02/24 08:13:46;;;;;;;20.75;15.95;;;;;;;;;;5015450;28;25093;-67
2024/02/24 08:16:15;;;;;;;25.85;16.20;;;;;;;;;;5001502;28;25075;-65
2024/02/24 08:18:41;;;;;;;27.45;15.68;;;;;;;;;;5001082;28;25131;-65
2024/02/24 08:21:08;;;;;;;19.50;16.15;;;;;;;;;;5004877;28;25065;-69
2024/02/24 08:23:37;;;;;;;24.95;16.20;;;;;;;;;;4990630;28;25067;-65
2024/02/24 08:26:03;;;;;;;25.85;16.40;;;;;;;;;;5007301;28;25105;-65
2024/02/24 08:28:29;;;;;;;24.30;15.20;;;;;;;;;;4983784;28;25078;-65
2024/02/24 08:30:55;;;;;;;25.00;16.92;;;;;;;;;;5004067;28;25056;-66
2024/02/24 08:33:22;;;;;;;19.88;15.57;;;;;;;;;;4997289;28;25071;-65
2024/02/24 08:35:49;;;;;;;21.67;15.85;;;;;;;;;;5000654;28;25080;-66
2024/02/24 08:38:16;;;;;;;24.63;16.13;;;;;;;;;;5001519;28;25084;-66
2024/02/24 08:40:43;;;;;;;22.60;17.23;;;;;;;;;;4984803;28;25114;-65
2024/02/24 08:43:08;;;;;;;28.40;16.63;;;;;;;;;;5000168;28;25057;-66
2024/02/24 08:45:34;;;;;;;25.60;15.70;;;;;;;;;;4998291;28;25077;-66
2024/02/24 08:48:00;;;;;;;23.10;14.18;;;;;;;;;;5002168;28;25065;-65
2024/02/24 08:50:26;;;;;;;22.13;13.15;;;;;;;;;;5002845;28;25080;-64
2024/02/24 08:52:52;;;;;;;23.38;13.23;;;;;;;;;;4998533;28;25061;-65
2024/02/24 08:55:18;;;;;;;21.23;12.65;;;;;;;;;;4996101;28;25195;-65
2024/02/24 08:57:44;;;;;;;16.30;12.77;;;;;;;;;;4985978;28;25106;-67
2024/02/24 09:00:12;;;;;;;19.75;10.70;;;;;;;;;;4993095;28;25117;-66
2024/02/24 09:02:38;;;;;;;15.90;11.25;;;;;;;;;;5000276;28;25074;-67
2024/02/24 09:05:05;;;;;;;20.73;12.95;;;;;;;;;;4999184;28;25109;-65
2024/02/24 09:07:31;;;;;;;20.27;11.65;;;;;;;;;;5001398;28;25162;-65
2024/02/24 09:09:57;;;;;;;18.30;10.93;;;;;;;;;;4993179;28;25050;-67
2024/02/24 09:12:23;;;;;;;17.65;10.43;;;;;;;;;;4994947;28;25060;-65
2024/02/24 09:14:49;;;;;;;13.45;10.15;;;;;;;;;;4988027;28;25073;-67
2024/02/24 09:17:15;;;;;;;13.25;8.80;;;;;;;;;;4996054;28;25064;-64
2024/02/24 09:19:45;;;;;;;14.05;9.43;;;;;;;;;;4979425;28;25055;-65
2024/02/24 09:22:11;;;;;;;9.25;7.25;;;;;;;;;;4999382;28;25097;-64
2024/02/24 09:24:37;;;;;;;12.57;7.38;;;;;;;;;;4997105;28;25058;-68
2024/02/24 09:27:04;;;;;;;10.82;6.07;;;;;;;;;;4998318;28;25060;-66
2024/02/24 09:29:29;;;;;;;10.73;6.30;;;;;;;;;;5000558;28;25057;-65
2024/02/24 09:31:56;;;;;;;10.10;5.93;;;;;;;;;;4986302;28;25061;-64
2024/02/24 09:34:22;;;;;;;9.07;6.28;;;;;;;;;;4997246;28;25051;-65
2024/02/24 09:36:48;;;;;;;9.48;4.90;;;;;;;;;;5003718;28;25061;-64
2024/02/24 09:39:14;;;;;;;9.02;4.50;;;;;;;;;;4990645;28;25122;-65
2024/02/24 09:41:40;;;;;;;11.88;3.72;;;;;;;;;;5007902;28;25057;-65
2024/02/24 09:44:06;;;;;;;6.90;3.72;;;;;;;;;;5002980;28;25100;-65
2024/02/24 09:46:34;;;;;;;7.15;4.22;;;;;;;;;;5005291;28;25136;-65
2024/02/24 09:49:00;;;;;;;11.02;3.85;;;;;;;;;;4992046;28;25107;-66
2024/02/24 09:51:27;;;;;;;10.18;4.15;;;;;;;;;;5007088;28;25132;-65
2024/02/24 09:53:53;;;;;;;8.35;4.00;;;;;;;;;;4997730;28;25058;-65
2024/02/24 09:56:20;;;;;;;10.45;4.13;;;;;;;;;;5004476;28;25143;-67
2024/02/24 09:58:46;;;;;;;7.03;3.67;;;;;;;;;;5001505;28;25061;-65
2024/02/24 10:01:12;;;;;;;5.95;3.85;;;;;;;;;;5006963;28;25070;-66
2024/02/24 10:03:40;;;;;;;6.22;4.35;;;;;;;;;;5008089;28;25066;-65
2024/02/24 10:06:08;;;;;;;6.63;4.90;;;;;;;;;;5008505;28;25072;-64
2024/02/24 10:08:34;;;;;;;5.93;4.10;;;;;;;;;;4987628;28;25082;-64
2024/02/24 10:11:00;;;;;;;6.30;3.60;;;;;;;;;;5002350;28;25138;-64
2024/02/24 10:13:26;;;;;;;5.80;3.28;;;;;;;;;;5004867;28;25061;-65
2024/02/24 10:15:52;;;;;;;6.00;3.03;;;;;;;;;;4996810;28;25103;-67
2024/02/24 10:18:21;;;;;;;6.85;2.55;;;;;;;;;;4993807;28;25135;-64
2024/02/24 10:20:47;;;;;;;7.15;2.20;;;;;;;;;;5004521;28;25064;-66
2024/02/24 10:23:13;;;;;;;5.68;2.80;;;;;;;;;;5009778;28;25064;-64
2024/02/24 10:25:39;;;;;;;5.88;2.67;;;;;;;;;;5020622;28;25067;-65
2024/02/24 10:28:06;;;;;;;7.18;2.38;;;;;;;;;;5006433;28;25096;-66
2024/02/24 10:30:32;;;;;;;4.65;2.40;;;;;;;;;;4981406;28;25085;-64
2024/02/24 10:33:00;;;;;;;6.57;2.90;;;;;;;;;;5003515;28;25150;-64
2024/02/24 10:35:26;;;;;;;5.28;2.50;;;;;;;;;;4998725;28;25088;-65
2024/02/24 10:37:55;;;;;;;6.32;3.47;;;;;;;;;;5000715;28;25094;-65
2024/02/24 10:40:22;;;;;;;5.05;2.78;;;;;;;;;;4986336;28;25052;-65
2024/02/24 10:42:48;;;;;;;6.75;2.80;;;;;;;;;;4998354;28;25064;-65
2024/02/24 10:45:14;;;;;;;4.65;3.05;;;;;;;;;;4979437;28;25069;-65
2024/02/24 10:47:40;;;;;;;6.10;3.28;;;;;;;;;;5003766;28;25073;-65
2024/02/24 10:50:11;;;;;;;11.73;3.42;;;;;;;;;;4998020;28;25147;-68
2024/02/24 10:52:37;;;;;;;5.47;3.70;;;;;;;;;;4999922;28;25068;-66
2024/02/24 10:55:04;;;;;;;9.18;3.55;;;;;;;;;;4999841;28;25058;-65
2024/02/24 10:57:31;;;;;;;5.53;3.63;;;;;;;;;;4994378;28;25061;-67
2024/02/24 10:59:57;;;;;;;6.05;3.60;;;;;;;;;;4996303;28;25106;-68
2024/02/24 11:02:24;;;;;;;6.78;4.07;;;;;;;;;;4981469;28;25106;-66
2024/02/24 11:04:52;;;;;;;6.18;3.42;;;;;;;;;;4998239;28;25123;-65
2024/02/24 11:07:20;;;;;;;8.25;3.25;;;;;;;;;;4990220;28;25089;-65
2024/02/24 11:09:52;;;;;;;4.88;3.25;;;;;;;;;;5002169;28;25057;-64
2024/02/24 11:12:20;;;;;;;8.70;3.50;;;;;;;;;;4989747;28;25076;-66
2024/02/24 11:14:47;;;;;;;6.05;3.85;;;;;;;;;;5001491;28;25138;-64
2024/02/24 11:17:33;;;;;;;7.07;3.65;;;;;;;;;;4994980;28;25154;-67
2024/02/24 11:19:59;;;;;;;8.98;3.78;;;;;;;;;;4998727;28;25060;-67
2024/02/24 11:22:29;;;;;;;4.90;3.55;;;;;;;;;;4995034;28;25076;-65
2024/02/24 11:25:02;;;;;;;5.60;3.10;;;;;;;;;;5001825;28;25064;-68
2024/02/24 11:27:30;;;;;;;6.43;4.00;;;;;;;;;;5006223;28;25154;-68
2024/02/24 11:29:56;;;;;;;6.13;3.95;;;;;;;;;;5001165;28;25077;-67
2024/02/24 11:32:22;;;;;;;10.07;4.50;;;;;;;;;;5008304;28;25064;-68
2024/02/24 11:34:48;;;;;;;5.15;3.25;;;;;;;;;;5004456;28;25093;-66
2024/02/24 11:37:18;;;;;;;10.48;4.10;;;;;;;;;;5006181;28;25057;-64
2024/02/24 11:39:45;;;;;;;10.23;3.97;;;;;;;;;;5006311;28;25122;-65
2024/02/24 11:42:11;;;;;;;4.70;3.17;;;;;;;;;;5005304;28;25141;-66
2024/02/24 11:44:42;;;;;;;6.95;2.80;;;;;;;;;;5001963;28;25056;-67
2024/02/24 11:47:08;;;;;;;5.53;2.80;;;;;;;;;;4994537;28;25074;-65
2024/02/24 11:49:34;;;;;;;3.22;2.80;;;;;;;;;;4989708;28;25077;-65
2024/02/24 11:52:00;;;;;;;6.85;3.47;;;;;;;;;;5007685;28;25044;-65
2024/02/24 11:54:26;;;;;;;3.35;2.72;;;;;;;;;;5003881;28;25100;-66
2024/02/24 11:56:52;;;;;;;3.92;3.03;;;;;;;;;;4995725;28;25096;-66
2024/02/24 11:59:18;;;;;;;5.68;2.85;;;;;;;;;;4995969;28;25065;-66
2024/02/24 12:01:45;;;;;;;2.95;2.55;;;;;;;;;;5002110;28;25047;-65
2024/02/24 12:04:13;;;;;;;5.75;2.70;;;;;;;;;;5002587;28;25078;-65
2024/02/24 12:06:39;;;;;;;7.93;3.85;;;;;;;;;;5002637;28;25055;-65
2024/02/24 12:09:05;;;;;;;5.45;2.92;;;;;;;;;;4995141;28;25057;-66
2024/02/24 12:11:31;;;;;;;4.82;3.58;;;;;;;;;;4982316;28;25084;-64
2024/02/24 12:13:57;;;;;;;6.82;4.18;;;;;;;;;;5001211;28;25103;-65
2024/02/24 12:16:24;;;;;;;7.13;3.67;;;;;;;;;;5003483;28;25059;-66
2024/02/24 12:18:50;;;;;;;11.05;3.80;;;;;;;;;;4997864;28;25053;-66
2024/02/24 12:21:16;;;;;;;5.88;4.07;;;;;;;;;;5003452;28;25085;-63
2024/02/24 12:23:42;;;;;;;7.35;4.38;;;;;;;;;;5006633;28;25061;-64
2024/02/24 12:26:11;;;;;;;9.52;4.25;;;;;;;;;;5004116;28;25047;-66
2024/02/24 12:28:39;;;;;;;6.65;4.15;;;;;;;;;;5000729;28;25156;-65
2024/02/24 12:31:08;;;;;;;5.93;3.53;;;;;;;;;;4997504;28;25074;-66
2024/02/24 12:33:35;;;;;;;5.50;3.35;;;;;;;;;;5006749;28;25063;-65
2024/02/24 12:36:08;;;;;;;5.18;3.38;;;;;;;;;;4999752;28;25068;-66
2024/02/24 12:38:34;;;;;;;8.10;3.55;;;;;;;;;;5018257;28;25075;-65
2024/02/24 12:41:07;;;;;;;8.55;3.80;;;;;;;;;;5016029;28;25064;-64
2024/02/24 12:43:34;;;;;;;8.90;3.65;;;;;;;;;;5006093;28;25079;-65
2024/02/24 12:46:00;;;;;;;6.07;3.28;;;;;;;;;;5001228;28;25056;-64
2024/02/24 12:48:26;;;;;;;4.30;3.08;;;;;;;;;;5000191;28;25064;-68
2024/02/24 12:50:52;;;;;;;6.97;3.22;;;;;;;;;;5006819;28;25069;-68
2024/02/24 12:53:19;;;;;;;8.07;4.30;;;;;;;;;;4987233;28;25135;-67
2024/02/24 12:55:45;;;;;;;7.07;3.90;;;;;;;;;;4996541;28;25070;-67
2024/02/24 12:58:11;;;;;;;6.88;3.55;;;;;;;;;;4989370;28;25092;-67
2024/02/24 13:00:37;;;;;;;5.25;3.50;;;;;;;;;;5004331;28;25061;-69
2024/02/24 13:03:04;;;;;;;6.13;4.10;;;;;;;;;;4979728;28;25059;-66
2024/02/24 13:05:30;;;;;;;10.68;4.65;;;;;;;;;;4982433;28;25087;-66
2024/02/24 13:07:56;;;;;;;10.90;4.53;;;;;;;;;;5004802;28;25097;-67
2024/02/24 13:10:23;;;;;;;8.00;4.22;;;;;;;;;;5000756;28;25117;-67
2024/02/24 13:12:49;;;;;;;8.15;4.38;;;;;;;;;;5000942;28;25190;-67
2024/02/24 13:15:15;;;;;;;4.32;3.92;;;;;;;;;;5002193;28;25116;-67
2024/02/24 13:17:41;;;;;;;5.97;4.75;;;;;;;;;;4988690;28;25125;-67
2024/02/24 13:20:07;;;;;;;5.57;3.80;;;;;;;;;;5004932;28;25069;-68
2024/02/24 13:22:38;;;;;;;10.95;4.40;;;;;;;;;;5010044;28;25088;-69
2024/02/24 13:25:05;;;;;;;5.47;4.35;;;;;;;;;;5006832;28;25059;-65
2024/02/24 13:27:31;;;;;;;6.90;4.32;;;;;;;;;;5010323;28;25063;-67
2024/02/24 13:29:57;;;;;;;6.00;3.60;;;;;;;;;;4983979;28;25070;-66
2024/02/24 13:32:23;;;;;;;5.07;3.30;;;;;;;;;;5000956;28;25125;-67
2024/02/24 13:34:49;;;;;;;9.85;3.42;;;;;;;;;;5006518;28;25101;-65
2024/02/24 13:37:15;;;;;;;10.05;2.92;;;;;;;;;;4998173;28;25056;-66
2024/02/24 13:39:41;;;;;;;4.35;2.97;;;;;;;;;;4993230;28;25156;-67
2024/02/24 13:42:07;;;;;;;5.25;3.10;;;;;;;;;;4995282;28;25078;-66
2024/02/24 13:44:33;;;;;;;4.82;3.08;;;;;;;;;;5009183;28;25103;-67
2024/02/24 13:46:59;;;;;;;5.38;2.70;;;;;;;;;;5007350;28;25090;-68
2024/02/24 13:49:25;;;;;;;5.22;3.15;;;;;;;;;;4991169;28;25093;-67
2024/02/24 13:51:51;;;;;;;5.35;2.97;;;;;;;;;;4988937;28;25067;-68
2024/02/24 13:54:17;;;;;;;7.07;3.05;;;;;;;;;;5000281;28;25076;-68
2024/02/24 13:56:43;;;;;;;5.00;2.80;;;;;;;;;;4984699;28;25120;-67
2024/02/24 13:59:09;;;;;;;4.57;3.47;;;;;;;;;;5007586;28;25186;-69
2024/02/24 14:01:35;;;;;;;6.18;3.30;;;;;;;;;;5011084;28;25091;-70
2024/02/24 14:04:02;;;;;;;6.45;3.15;;;;;;;;;;5010221;28;25062;-68
2024/02/24 14:06:28;;;;;;;4.43;2.95;;;;;;;;;;5004000;28;25082;-67
2024/02/24 14:08:54;;;;;;;5.93;3.15;;;;;;;;;;5002820;28;25089;-69
2024/02/24 14:11:20;;;;;;;5.55;3.20;;;;;;;;;;5002788;28;25056;-66
2024/02/24 14:13:46;;;;;;;6.10;2.92;;;;;;;;;;5005310;28;25116;-68
2024/02/24 14:16:12;;;;;;;2.90;2.60;;;;;;;;;;5003358;28;25057;-67
2024/02/24 14:18:38;;;;;;;6.00;2.90;;;;;;;;;;5005345;28;25080;-66
2024/02/24 14:21:04;;;;;;;5.07;2.92;;;;;;;;;;5005040;28;25104;-69
2024/02/24 14:23:32;;;;;;;5.93;3.47;;;;;;;;;;4989681;28;24956;-68
2024/02/24 14:25:57;;;;;;;3.72;3.05;;;;;;;;;;4985587;28;25062;-68